Time;durP1;ratioP1;P1;durP2;ratioP2;P2;SDS_P1;SDS_P2;PMS_P1;PMS_P2;Temp;Humidity;BMP_temperature;BMP_pressure;BME280_temperature;BME280_humidity;BME280_pressure;Samples;Min_cycle;Max_cycle;Signal;HPM_P1;HPM_P2
2022/01/28 00:04:50;;;;;;;52.47;19.63;;;;;;;2.37;82.23;101154.72;4997071;28;20117;-87
2022/01/28 00:07:18;;;;;;;49.15;18.48;;;;;;;2.40;82.30;101145.91;5011698;28;20050;-87
2022/01/28 00:09:44;;;;;;;46.35;18.15;;;;;;;2.42;82.29;101153.69;5013799;28;20038;-86
2022/01/28 00:12:12;;;;;;;48.78;17.35;;;;;;;2.42;82.40;101151.06;5002584;28;20037;-87
2022/01/28 00:14:48;;;;;;;44.10;17.88;;;;;;;2.43;82.14;101155.44;4994075;28;20042;-87
2022/01/28 00:39:09;;;;;;;53.20;18.38;;;;;;;2.45;82.35;101169.34;4962703;28;20394;-79
2022/01/28 00:42:04;;;;;;;50.13;18.02;;;;;;;2.39;82.20;101160.78;4967333;28;20053;-79
2022/01/28 00:44:30;;;;;;;56.92;19.08;;;;;;;2.45;82.28;101166.72;4903637;28;20046;-80
2022/01/28 00:46:57;;;;;;;54.78;19.13;;;;;;;2.46;82.17;101168.44;4967567;28;20066;-80
2022/01/28 00:49:24;;;;;;;45.55;17.23;;;;;;;2.46;82.32;101171.03;4962478;28;20046;-79
2022/01/28 00:51:51;;;;;;;50.58;19.73;;;;;;;2.46;82.39;101171.03;4981935;28;20058;-80
2022/01/28 00:54:18;;;;;;;59.97;20.75;;;;;;;2.47;82.34;101176.25;4967008;28;20055;-79
2022/01/28 00:56:45;;;;;;;47.85;18.10;;;;;;;2.48;82.29;101179.72;5001769;28;20038;-79
2022/01/28 00:59:37;;;;;;;54.05;19.05;;;;;;;2.39;82.65;101193.97;4980453;28;20042;-80
2022/01/28 01:02:04;;;;;;;50.90;19.92;;;;;;;2.47;82.76;101185.84;4958620;28;20046;-80
2022/01/28 01:04:31;;;;;;;49.58;17.92;;;;;;;2.47;82.45;101191.97;4987722;28;20049;-80
2022/01/28 01:06:58;;;;;;;48.65;19.83;;;;;;;2.49;82.45;101194.53;5016588;28;20049;-79
2022/01/28 01:09:24;;;;;;;48.88;17.85;;;;;;;2.49;82.31;101197.16;4987806;28;20052;-80
2022/01/28 01:11:51;;;;;;;57.47;19.75;;;;;;;2.50;82.59;101199.75;5006736;28;20068;-80
2022/01/28 01:14:48;;;;;;;52.45;19.67;;;;;;;2.42;82.48;101193.03;5005787;28;20057;-80
2022/01/28 01:19:51;;;;;;;46.75;18.85;;;;;;;2.51;82.57;101205.84;4993586;28;20042;-80
2022/01/28 01:22:19;;;;;;;47.10;18.27;;;;;;;2.51;82.54;101200.59;4984065;28;20049;-80
2022/01/28 01:24:52;;;;;;;47.55;18.17;;;;;;;2.51;82.65;101211.09;4990533;28;20052;-80
2022/01/28 01:27:20;;;;;;;48.17;18.13;;;;;;;2.51;82.62;101218.94;4982285;28;20107;-79
2022/01/28 01:29:48;;;;;;;51.85;19.02;;;;;;;2.52;82.56;101220.66;4985354;28;20122;-80
2022/01/28 01:32:17;;;;;;;44.17;17.48;;;;;;;2.52;82.56;101216.28;5016645;28;20041;-81
2022/01/28 01:34:44;;;;;;;55.03;18.92;;;;;;;2.53;82.87;101225.00;5002088;28;20060;-80
2022/01/28 01:37:12;;;;;;;51.95;18.02;;;;;;;2.52;82.74;101226.78;5016712;28;20419;-80
2022/01/28 01:39:41;;;;;;;50.20;17.80;;;;;;;2.54;82.67;101238.03;5005306;28;20060;-80
2022/01/28 01:42:19;;;;;;;48.63;17.75;;;;;;;2.52;82.89;101242.50;5004175;28;20050;-80
2022/01/28 01:52:56;;;;;;;44.95;17.02;;;;;;;2.54;82.81;101248.53;4982567;28;21515;-80
2022/01/28 01:55:24;;;;;;;44.42;17.05;;;;;;;2.54;82.84;101245.06;5013935;28;20045;-80
2022/01/28 01:57:51;;;;;;;54.35;18.05;;;;;;;2.58;82.87;101246.69;4990829;28;20088;-80
2022/01/28 02:00:18;;;;;;;49.28;17.73;;;;;;;2.58;82.95;101244.91;5006088;28;20049;-80
2022/01/28 02:02:48;;;;;;;53.20;18.52;;;;;;;2.58;83.02;101239.66;5016122;28;20052;-80
2022/01/28 02:05:16;;;;;;;47.40;18.08;;;;;;;2.59;82.82;101241.38;5003641;28;20042;-80
2022/01/28 02:07:45;;;;;;;50.08;16.70;;;;;;;2.59;82.97;101240.53;5005029;28;20041;-80
2022/01/28 02:10:13;;;;;;;43.50;17.90;;;;;;;2.61;82.73;101238.72;4985319;28;20053;-80
2022/01/28 02:12:50;;;;;;;46.28;17.00;;;;;;;2.57;82.66;101252.81;5002159;28;20125;-81
2022/01/28 02:15:22;;;;;;;38.10;15.32;;;;;;;2.58;82.68;101241.44;4999918;28;20046;-80
2022/01/28 02:17:48;;;;;;;46.05;17.13;;;;;;;2.61;82.97;101246.59;4998946;28;20053;-80
2022/01/28 02:20:29;;;;;;;45.42;16.48;;;;;;;2.59;82.79;101245.75;5000309;28;20054;-80
2022/01/28 02:22:56;;;;;;;48.13;18.38;;;;;;;2.61;83.11;101249.19;5003686;28;20068;-80
2022/01/28 02:25:26;;;;;;;51.70;18.73;;;;;;;2.65;82.95;101244.72;5012690;28;20041;-81
2022/01/28 02:27:54;;;;;;;41.72;16.73;;;;;;;2.65;83.08;101252.59;4999425;28;20056;-80
2022/01/28 02:30:20;;;;;;;42.97;16.88;;;;;;;2.66;82.82;101252.53;5016541;28;20049;-80
2022/01/28 02:32:50;;;;;;;48.50;17.13;;;;;;;2.67;82.84;101263.88;4982844;28;20560;-80
2022/01/28 02:35:17;;;;;;;48.72;17.83;;;;;;;2.66;83.10;101263.03;5004835;28;20408;-80
2022/01/28 02:37:43;;;;;;;44.40;16.35;;;;;;;2.66;82.96;101251.69;5001410;28;20046;-80
2022/01/28 02:40:11;;;;;;;45.40;16.63;;;;;;;2.67;82.98;101267.38;5016082;28;20049;-80
2022/01/28 02:42:55;;;;;;;43.22;17.33;;;;;;;2.68;82.91;101262.97;5002484;28;20045;-80
2022/01/28 02:45:32;;;;;;;43.00;16.85;;;;;;;2.68;82.86;101279.56;5028186;28;20053;-80
2022/01/28 02:48:03;;;;;;;46.30;16.77;;;;;;;2.65;82.88;101287.53;5024676;28;20140;-80
2022/01/28 02:50:36;;;;;;;48.80;18.08;;;;;;;2.68;82.81;101278.72;5010211;28;20050;-80
2022/01/28 02:53:07;;;;;;;;;;;;;;;2.52;83.10;101280.94;5009382;28;20079;-80
2022/01/28 02:55:38;;;;;;;48.92;16.95;;;;;;;2.63;82.94;101291.13;5016472;28;19928;-80
2022/01/28 02:58:18;;;;;;;47.58;18.27;;;;;;;2.68;82.76;101286.59;4981899;28;20046;-81
2022/01/28 03:00:47;;;;;;;45.80;16.67;;;;;;;2.67;83.21;101297.97;5000325;28;20512;-81
2022/01/28 03:03:18;;;;;;;48.30;17.60;;;;;;;2.69;82.89;101290.91;5010150;28;20042;-80
2022/01/28 03:05:45;;;;;;;43.05;16.30;;;;;;;2.69;83.00;101294.38;5026749;28;20497;-80
2022/01/28 03:08:12;;;;;;;46.63;16.33;;;;;;;2.69;82.99;101290.91;5001044;28;20548;-81
2022/01/28 03:10:47;;;;;;;45.17;17.45;;;;;;;2.72;82.76;101294.31;5003367;28;20520;-81
2022/01/28 03:13:31;;;;;;;42.70;17.48;;;;;;;2.70;83.18;101295.28;5001286;28;20107;-81
2022/01/28 03:16:14;;;;;;;46.90;17.38;;;;;;;2.73;82.96;101300.41;5015049;28;20046;-81
2022/01/28 03:18:47;;;;;;;50.78;17.15;;;;;;;2.71;82.82;101294.34;5009931;28;20052;-80
2022/01/28 03:23:47;;;;;;;39.42;14.05;;;;;;;2.72;83.17;101296.94;4994141;28;20046;-80
2022/01/28 03:26:14;;;;;;;47.83;17.98;;;;;;;2.74;82.96;101294.25;5000039;28;20497;-80
2022/01/28 03:28:42;;;;;;;42.13;16.35;;;;;;;2.74;82.95;101299.50;5002132;28;20492;-80
2022/01/28 03:31:09;;;;;;;45.40;15.52;;;;;;;2.73;83.33;101308.28;4988272;28;20100;-81
2022/01/28 03:33:36;;;;;;;44.95;16.38;;;;;;;2.74;83.02;101305.59;4987507;28;20042;-87
2022/01/28 03:36:07;;;;;;;41.17;15.35;;;;;;;2.74;83.39;101317.84;4985800;28;20045;-87
2022/01/28 03:38:34;;;;;;;39.72;14.90;;;;;;;2.76;83.24;101327.38;4981122;28;20041;-87
2022/01/28 03:41:01;;;;;;;31.33;12.75;;;;;;;2.76;82.98;101323.91;4986806;28;20049;-86
2022/01/28 03:43:27;;;;;;;36.17;14.15;;;;;;;2.76;82.89;101319.50;5011422;28;20053;-87
2022/01/28 03:45:55;;;;;;;40.90;15.23;;;;;;;2.81;82.80;101316.75;4984789;28;20068;-81
2022/01/28 03:48:22;;;;;;;36.08;14.07;;;;;;;2.74;82.96;101320.47;4987016;28;20479;-82
2022/01/28 03:50:51;;;;;;;36.20;14.07;;;;;;;2.75;82.99;101324.84;4996437;28;20064;-81
2022/01/28 03:53:18;;;;;;;38.50;14.43;;;;;;;2.75;82.99;101325.69;4990148;28;20045;-81
2022/01/28 03:55:46;;;;;;;46.22;17.35;;;;;;;2.78;82.88;101332.59;4978510;28;20038;-81
2022/01/28 03:58:15;;;;;;;43.03;14.95;;;;;;;2.76;82.48;101342.28;5006797;28;20054;-81
2022/01/28 04:00:42;;;;;;;44.15;16.23;;;;;;;2.78;82.76;101343.94;5000519;28;20068;-81
2022/01/28 04:03:23;;;;;;;40.08;16.35;;;;;;;2.78;82.85;101340.47;5005259;28;20050;-81
2022/01/28 04:11:36;;;;;;;42.78;16.95;;;;;;;2.76;82.70;101337.88;4995348;28;20049;-81
2022/01/28 04:14:15;;;;;;;47.55;16.63;;;;;;;2.78;82.45;101338.69;4982839;28;20050;-81
2022/01/28 04:19:27;;;;;;;55.33;18.80;;;;;;;2.75;82.76;101340.56;5025802;28;20042;-82
2022/01/28 04:21:54;;;;;;;46.33;18.27;;;;;;;2.77;82.94;101352.72;4986786;28;20048;-81
2022/01/28 04:24:21;;;;;;;45.50;15.93;;;;;;;2.78;82.87;101356.19;4986116;28;20406;-82
2022/01/28 04:26:48;;;;;;;48.55;19.60;;;;;;;2.78;82.91;101367.53;4997576;28;20148;-81
2022/01/28 04:29:14;;;;;;;52.10;17.90;;;;;;;2.79;82.89;101365.78;4985531;28;20049;-81
2022/01/28 04:31:44;;;;;;;54.22;19.10;;;;;;;2.80;83.10;101373.59;4984642;28;20048;-81
2022/01/28 04:34:15;;;;;;;65.30;23.27;;;;;;;2.81;82.98;101382.34;4961840;28;20045;-81
2022/01/28 04:37:01;;;;;;;58.30;22.70;;;;;;;2.82;82.83;101371.81;4993508;28;20045;-81
2022/01/28 04:47:16;;;;;;;52.30;19.73;;;;;;;2.84;83.20;101371.72;5010410;28;20049;-81
2022/01/28 04:50:14;;;;;;;60.13;22.48;;;;;;;2.84;82.92;101382.22;5016739;28;20105;-81
2022/01/28 04:58:20;;;;;;;49.33;19.67;;;;;;;2.84;83.38;101376.97;5001984;28;20052;-81
2022/01/28 05:03:42;;;;;;;54.15;18.13;;;;;;;2.83;83.11;101376.13;5016252;28;20452;-81
2022/01/28 05:12:33;;;;;;;50.78;17.73;;;;;;;2.88;83.33;101372.53;5028744;28;20107;-81
2022/01/28 05:25:48;;;;;;;57.13;19.52;;;;;;;2.89;83.34;101382.94;4941266;28;20053;-82
2022/01/28 05:28:19;;;;;;;50.92;17.92;;;;;;;2.91;83.33;101385.53;5039263;28;20052;-82
2022/01/28 05:30:45;;;;;;;56.30;21.95;;;;;;;2.92;83.45;101387.22;5003199;28;20065;-82
2022/01/28 05:33:12;;;;;;;43.40;16.63;;;;;;;2.95;83.11;101400.25;5017987;28;20041;-82
2022/01/28 05:35:39;;;;;;;55.78;20.10;;;;;;;2.94;83.10;101398.53;5014994;28;20038;-82
2022/01/28 05:38:05;;;;;;;56.75;19.42;;;;;;;2.93;83.32;101402.94;5005125;28;20100;-82
2022/01/28 05:40:32;;;;;;;56.80;20.15;;;;;;;2.94;83.15;101401.16;4968163;28;20049;-83
2022/01/28 05:42:59;;;;;;;59.22;19.70;;;;;;;2.95;83.05;101410.75;4992811;28;20045;-81
2022/01/28 05:45:26;;;;;;;55.97;18.92;;;;;;;2.93;83.37;101404.72;5004420;28;20057;-83
2022/01/28 05:47:52;;;;;;;57.92;20.17;;;;;;;2.93;83.13;101412.59;5008045;28;20493;-82
2022/01/28 05:50:21;;;;;;;52.63;19.20;;;;;;;2.92;83.25;101426.59;4996778;28;20057;-83
2022/01/28 05:52:48;;;;;;;48.58;17.50;;;;;;;2.94;83.25;101433.50;4961737;28;20052;-81
2022/01/28 05:55:15;;;;;;;55.90;18.85;;;;;;;2.95;83.46;101440.50;5000215;28;20492;-82
2022/01/28 05:57:42;;;;;;;60.80;19.10;;;;;;;2.95;83.29;101439.59;5005508;28;20045;-82
2022/01/28 06:00:09;;;;;;;47.67;18.52;;;;;;;3.00;83.40;101450.81;4970722;28;20057;-82
2022/01/28 06:02:46;;;;;;;51.08;18.52;;;;;;;2.95;83.12;101450.09;5001608;28;20148;-82
2022/01/28 06:05:15;;;;;;;67.22;19.13;;;;;;;2.95;83.24;101451.00;5001638;28;20062;-83
2022/01/28 06:07:42;;;;;;;50.38;17.58;;;;;;;2.98;83.14;101458.75;4996840;28;20046;-82
2022/01/28 06:10:14;;;;;;;49.53;16.05;;;;;;;2.98;83.00;101463.16;5002106;28;20045;-83
2022/01/28 06:12:46;;;;;;;51.03;17.40;;;;;;;2.96;83.07;101464.97;5018394;28;20473;-83
2022/01/28 06:15:14;;;;;;;52.35;18.55;;;;;;;2.98;83.17;101479.75;4988413;28;20459;-82
2022/01/28 06:17:41;;;;;;;58.65;19.83;;;;;;;3.01;83.03;101473.56;4988054;28;20470;-82
2022/01/28 06:20:10;;;;;;;57.50;20.35;;;;;;;2.96;83.36;101478.09;5016777;28;20041;-83
2022/01/28 06:22:41;;;;;;;52.67;17.85;;;;;;;2.98;83.22;101494.66;5002279;28;20053;-81
2022/01/28 06:25:09;;;;;;;49.40;17.60;;;;;;;3.00;83.26;101501.56;5002556;28;20049;-81
2022/01/28 06:27:37;;;;;;;62.42;20.33;;;;;;;3.02;83.05;101491.00;5018629;28;20049;-81
2022/01/28 06:30:05;;;;;;;49.55;17.25;;;;;;;3.01;83.16;101489.28;4986162;28;20064;-78
2022/01/28 06:32:33;;;;;;;59.13;19.25;;;;;;;3.04;83.13;101494.44;5002642;28;20044;-78
2022/01/28 06:35:00;;;;;;;65.38;20.25;;;;;;;3.10;82.98;101490.75;5002486;28;20046;-78
2022/01/28 06:37:27;;;;;;;57.88;20.15;;;;;;;3.00;83.09;101485.81;4986765;28;20462;-77
2022/01/28 06:39:54;;;;;;;54.05;19.20;;;;;;;2.96;83.55;101483.31;4999876;28;20057;-79
2022/01/28 06:42:21;;;;;;;58.40;19.73;;;;;;;2.97;83.17;101493.75;5005604;28;20059;-80
2022/01/28 06:44:47;;;;;;;50.60;17.80;;;;;;;2.98;83.27;101499.91;5014222;28;20046;-80
2022/01/28 06:47:16;;;;;;;57.55;18.88;;;;;;;3.00;83.19;101498.94;5011933;28;20075;-80
2022/01/28 06:49:43;;;;;;;60.90;20.58;;;;;;;3.06;83.07;101510.16;4996706;28;20065;-79
2022/01/28 06:52:10;;;;;;;56.88;20.73;;;;;;;3.02;83.13;101509.38;5009618;28;20049;-80
2022/01/28 06:54:40;;;;;;;60.20;21.25;;;;;;;3.01;83.21;101502.41;5000672;28;20459;-80
2022/01/28 06:57:06;;;;;;;56.95;19.83;;;;;;;3.02;83.22;101506.75;5013549;28;20049;-80
2022/01/28 06:59:33;;;;;;;64.05;20.75;;;;;;;3.03;83.17;101511.09;5003187;28;20046;-80
2022/01/28 07:02:00;;;;;;;52.15;18.15;;;;;;;3.03;83.32;101514.59;5013420;28;20408;-80
2022/01/28 07:04:27;;;;;;;57.00;19.27;;;;;;;3.00;83.31;101517.31;5011338;28;20081;-80
2022/01/28 07:06:54;;;;;;;57.13;19.70;;;;;;;3.04;83.19;101539.91;4982466;28;20069;-79
2022/01/28 07:09:20;;;;;;;56.30;19.45;;;;;;;3.04;83.14;101536.44;4999824;28;20064;-80
2022/01/28 07:11:47;;;;;;;61.70;19.67;;;;;;;3.06;83.04;101531.16;5002165;28;20063;-80
2022/01/28 07:14:15;;;;;;;58.85;20.25;;;;;;;3.05;83.07;101530.25;4999583;28;20055;-80
2022/01/28 07:16:42;;;;;;;53.35;18.23;;;;;;;3.06;83.22;101531.16;4982689;28;20057;-79
2022/01/28 07:19:10;;;;;;;59.25;20.55;;;;;;;3.06;83.09;101531.16;4974538;28;20057;-82
2022/01/28 07:21:36;;;;;;;59.40;19.48;;;;;;;3.05;82.97;101540.75;5005029;28;20044;-85
2022/01/28 07:24:03;;;;;;;58.58;18.35;;;;;;;3.04;82.99;101553.03;5014851;28;20058;-85
2022/01/28 07:26:30;;;;;;;56.30;19.60;;;;;;;3.05;83.09;101564.38;4983798;28;20053;-85
2022/01/28 07:28:57;;;;;;;57.47;19.15;;;;;;;3.04;83.13;101563.53;5012906;28;20550;-85
2022/01/28 07:31:24;;;;;;;55.72;19.35;;;;;;;3.03;83.37;101572.31;5001441;28;20092;-85
2022/01/28 07:33:50;;;;;;;59.60;19.38;;;;;;;3.06;83.02;101578.41;5013822;28;20187;-85
2022/01/28 07:36:18;;;;;;;56.85;19.25;;;;;;;3.05;82.98;101572.25;4999332;28;20529;-86
2022/01/28 07:38:45;;;;;;;57.97;20.73;;;;;;;3.06;83.18;101578.41;4996931;28;20041;-86
2022/01/28 07:41:12;;;;;;;58.40;20.45;;;;;;;3.08;83.02;101574.81;4985623;28;20053;-84
2022/01/28 07:43:39;;;;;;;61.75;19.90;;;;;;;3.06;83.26;101567.91;5001954;28;20054;-86
2022/01/28 07:46:06;;;;;;;56.53;19.15;;;;;;;3.02;83.58;101573.22;4996736;28;20046;-86
2022/01/28 07:48:33;;;;;;;64.07;20.98;;;;;;;3.04;83.31;101581.03;4983222;28;20570;-84
2022/01/28 07:51:00;;;;;;;64.45;20.13;;;;;;;3.09;83.11;101583.53;4995171;28;20571;-85
2022/01/28 07:53:27;;;;;;;53.65;18.55;;;;;;;3.07;83.34;101588.81;5012178;28;20038;-85
2022/01/28 07:55:53;;;;;;;60.05;18.63;;;;;;;3.08;83.14;101589.69;4992052;28;20624;-85
2022/01/28 07:58:20;;;;;;;57.58;20.50;;;;;;;3.08;83.34;101600.19;5000456;28;20057;-79
2022/01/28 08:00:47;;;;;;;59.70;21.80;;;;;;;3.08;83.23;101605.44;5007266;28;20045;-79
2022/01/28 08:03:14;;;;;;;67.53;21.13;;;;;;;3.08;83.17;101608.94;4987125;28;20489;-79
2022/01/28 08:05:41;;;;;;;66.20;21.08;;;;;;;3.13;83.26;101599.16;5011535;28;20405;-79
2022/01/28 08:08:09;;;;;;;60.88;19.35;;;;;;;3.14;83.01;101613.16;4987878;28;20454;-79
2022/01/28 08:10:38;;;;;;;59.00;19.92;;;;;;;3.13;83.13;101617.53;5014644;28;20046;-78
2022/01/28 08:13:09;;;;;;;67.45;22.98;;;;;;;3.10;83.20;101609.72;5016211;28;20047;-78
2022/01/28 08:16:00;;;;;;;69.70;21.83;;;;;;;3.04;83.26;101610.78;4983370;28;20836;-78
2022/01/28 08:18:27;;;;;;;68.82;22.17;;;;;;;3.16;83.10;101621.84;4968055;28;20134;-80
2022/01/28 08:20:54;;;;;;;59.25;21.33;;;;;;;3.15;83.28;101613.06;5012528;28;20067;-78
2022/01/28 08:23:20;;;;;;;60.88;21.23;;;;;;;3.18;83.08;101620.00;5013713;28;20046;-79
2022/01/28 08:25:54;;;;;;;62.17;19.50;;;;;;;3.12;83.22;101623.66;4985119;28;20444;-79
2022/01/28 08:28:25;;;;;;;57.45;19.33;;;;;;;3.14;83.04;101627.13;4984229;28;20048;-78
2022/01/28 08:30:59;;;;;;;63.42;19.95;;;;;;;3.16;83.13;101632.34;4997673;28;20046;-78
2022/01/28 08:33:26;;;;;;;58.15;20.58;;;;;;;3.17;83.20;101631.41;4988416;28;20048;-78
2022/01/28 08:35:54;;;;;;;58.03;19.75;;;;;;;3.16;83.18;101638.44;4995070;28;20400;-78
2022/01/28 08:38:26;;;;;;;62.00;19.27;;;;;;;3.16;83.17;101648.94;5017700;28;20103;-78
2022/01/28 08:40:54;;;;;;;50.30;17.95;;;;;;;3.17;83.07;101649.78;5005175;28;20046;-78
2022/01/28 08:43:20;;;;;;;58.38;19.77;;;;;;;3.17;83.33;101649.78;4999379;28;20146;-80
2022/01/28 08:45:47;;;;;;;64.68;21.17;;;;;;;3.22;83.20;101646.13;4986796;28;20039;-77
2022/01/28 08:48:14;;;;;;;57.58;18.08;;;;;;;3.19;83.10;101661.97;5003763;28;20069;-78
2022/01/28 08:50:41;;;;;;;58.00;19.23;;;;;;;3.20;83.23;101662.81;4984667;28;20456;-78
2022/01/28 08:53:11;;;;;;;66.03;20.83;;;;;;;3.20;83.36;101660.19;4968601;28;20076;-78
2022/01/28 08:55:38;;;;;;;52.47;17.98;;;;;;;3.23;83.19;101673.22;5015787;28;20037;-78
2022/01/28 08:58:09;;;;;;;59.85;18.83;;;;;;;3.23;83.17;101676.75;4991222;28;20440;-77
2022/01/28 09:00:36;;;;;;;61.10;18.30;;;;;;;3.21;83.39;101675.06;4986536;28;20076;-78
2022/01/28 09:03:03;;;;;;;56.78;17.17;;;;;;;3.21;83.38;101675.94;4998804;28;20513;-78
2022/01/28 09:05:30;;;;;;;62.33;17.98;;;;;;;3.26;83.08;101670.53;4988075;28;20061;-78
2022/01/28 09:07:57;;;;;;;58.42;21.05;;;;;;;3.26;83.19;101674.03;5002518;28;20119;-78
2022/01/28 09:10:25;;;;;;;53.25;17.15;;;;;;;3.29;83.27;101669.59;5007301;28;20057;-79
2022/01/28 09:15:31;;;;;;;53.42;19.15;;;;;;;3.30;83.42;101673.94;5045430;28;20053;-77
2022/01/28 09:17:58;;;;;;;57.42;18.83;;;;;;;3.31;83.41;101679.16;4982405;28;20042;-78
2022/01/28 09:20:31;;;;;;;61.88;18.52;;;;;;;3.29;83.41;101680.97;5019744;28;20053;-78
2022/01/28 09:22:59;;;;;;;57.78;19.25;;;;;;;3.32;83.78;101690.50;5014662;28;20045;-79
2022/01/28 09:25:28;;;;;;;56.92;17.55;;;;;;;3.31;83.64;101684.41;5001497;28;20079;-80
2022/01/28 09:27:54;;;;;;;57.67;20.10;;;;;;;3.34;83.45;101693.97;4989769;28;20048;-78
2022/01/28 09:30:21;;;;;;;67.55;21.02;;;;;;;3.37;83.42;101686.00;5013471;28;20451;-78
2022/01/28 09:32:48;;;;;;;54.17;18.98;;;;;;;3.40;83.57;101675.38;4987884;28;20042;-77
2022/01/28 09:35:16;;;;;;;58.60;19.40;;;;;;;3.39;83.38;101682.41;5017139;28;20051;-78
2022/01/28 09:37:43;;;;;;;67.70;21.55;;;;;;;3.42;83.41;101679.69;5000346;28;20472;-78
2022/01/28 09:40:11;;;;;;;57.67;20.98;;;;;;;3.45;83.54;101681.38;5013667;28;20053;-78
2022/01/28 09:42:41;;;;;;;63.33;19.25;;;;;;;3.48;83.40;101684.75;4987392;28;20054;-80
2022/01/28 09:45:09;;;;;;;59.22;18.77;;;;;;;3.46;83.47;101694.47;4990076;28;20058;-81
2022/01/28 09:47:37;;;;;;;48.17;17.45;;;;;;;3.46;83.32;101697.09;4989661;28;20042;-78
2022/01/28 09:50:06;;;;;;;61.75;18.02;;;;;;;3.49;83.48;101693.50;5003795;28;20559;-78
2022/01/28 09:52:33;;;;;;;52.53;17.40;;;;;;;3.51;83.88;101696.97;4986731;28;20048;-77
2022/01/28 09:55:55;;;;;;;64.22;18.08;;;;;;;3.47;83.45;101706.69;5007758;28;20045;-78
2022/01/28 09:58:23;;;;;;;56.90;17.20;;;;;;;3.57;84.06;101699.41;4945974;28;20045;-78
2022/01/28 10:00:50;;;;;;;56.33;18.48;;;;;;;3.61;83.82;101702.78;4998627;28;20056;-80
2022/01/28 10:03:18;;;;;;;52.92;16.92;;;;;;;3.60;83.83;101704.56;5000067;28;20042;-77
2022/01/28 10:05:50;;;;;;;57.03;17.63;;;;;;;3.59;83.63;101700.22;4965292;28;20117;-78
2022/01/28 10:08:18;;;;;;;52.67;17.35;;;;;;;3.65;83.63;101696.53;4984760;28;20056;-78
2022/01/28 10:10:59;;;;;;;53.20;17.15;;;;;;;3.59;83.71;101712.50;5001583;28;20046;-78
2022/01/28 10:20:06;;;;;;;61.78;19.20;;;;;;;3.58;84.18;101705.50;4973428;28;20515;-78
2022/01/28 10:22:32;;;;;;;57.72;18.88;;;;;;;3.69;83.95;101698.19;5006633;28;20687;-78
2022/01/28 10:25:26;;;;;;;56.25;19.98;;;;;;;3.65;83.68;101700.03;5016315;28;20041;-80
2022/01/28 10:28:02;;;;;;;55.70;20.05;;;;;;;3.70;83.87;101692.88;5006353;28;20061;-77
2022/01/28 10:30:29;;;;;;;56.70;18.40;;;;;;;3.72;84.02;101700.72;5021526;28;20057;-77
2022/01/28 10:33:17;;;;;;;53.83;18.52;;;;;;;3.68;83.75;101709.56;5019379;28;20041;-77
2022/01/28 10:35:57;;;;;;;64.38;18.92;;;;;;;3.69;83.86;101703.44;5001149;28;20050;-78
2022/01/28 10:38:35;;;;;;;52.67;17.77;;;;;;;3.73;83.89;101702.41;4998850;28;20386;-78
2022/01/28 10:41:28;;;;;;;55.63;18.15;;;;;;;3.76;83.59;101696.22;5019589;28;20400;-77
2022/01/28 10:43:57;;;;;;;50.05;17.17;;;;;;;3.82;83.87;101698.69;4998844;28;20049;-77
2022/01/28 10:46:29;;;;;;;52.42;17.85;;;;;;;4.04;82.82;101689.19;5003672;28;20073;-78
2022/01/28 10:49:03;;;;;;;52.45;15.73;;;;;;;3.87;83.24;101696.75;5015257;28;20050;-77
2022/01/28 10:51:50;;;;;;;47.97;15.18;;;;;;;3.79;83.67;101698.75;5019909;28;20130;-78
2022/01/28 10:54:19;;;;;;;49.10;15.98;;;;;;;3.89;83.69;101703.69;4975917;28;20045;-79
2022/01/28 10:56:50;;;;;;;46.30;14.85;;;;;;;3.87;83.71;101697.63;5010012;28;20079;-79
2022/01/28 10:59:19;;;;;;;53.67;15.07;;;;;;;3.91;83.65;101703.63;4997112;28;20049;-79
2022/01/28 11:01:47;;;;;;;55.40;16.55;;;;;;;3.89;84.12;101700.19;4998349;28;20060;-78
2022/01/28 11:04:16;;;;;;;43.97;15.73;;;;;;;3.91;84.06;101693.97;5000864;28;20041;-79
2022/01/28 11:06:43;;;;;;;42.10;15.70;;;;;;;3.92;84.17;101687.81;4967526;28;20046;-79
2022/01/28 11:09:12;;;;;;;49.88;16.95;;;;;;;3.93;84.43;101683.41;5004922;28;20403;-79
2022/01/28 11:11:39;;;;;;;55.53;17.90;;;;;;;4.00;84.31;101684.97;5011362;28;20041;-79
2022/01/28 11:14:06;;;;;;;53.40;19.80;;;;;;;4.03;84.52;101686.63;4984984;28;20061;-79
2022/01/28 11:16:33;;;;;;;63.58;17.50;;;;;;;4.10;84.22;101693.41;4982484;28;20053;-79
2022/01/28 11:19:05;;;;;;;45.38;17.25;;;;;;;4.06;84.17;101679.50;4982699;28;20049;-79
2022/01/28 11:21:49;;;;;;;52.38;17.77;;;;;;;4.04;83.97;101685.72;4964559;28;20092;-80
2022/01/28 11:24:21;;;;;;;51.50;16.20;;;;;;;4.06;84.14;101681.25;4971208;28;20526;-79
2022/01/28 11:26:54;;;;;;;49.08;16.13;;;;;;;4.07;84.04;101685.59;4973371;28;20074;-81
2022/01/28 11:29:28;;;;;;;45.85;15.77;;;;;;;4.02;83.86;101691.03;4963544;28;20047;-80
2022/01/28 11:31:57;;;;;;;48.42;16.52;;;;;;;4.01;84.05;101691.91;4975208;28;20170;-81
2022/01/28 11:34:31;;;;;;;54.45;17.17;;;;;;;4.08;83.40;101692.59;4945452;28;20486;-81
2022/01/28 11:37:17;;;;;;;48.85;16.30;;;;;;;3.98;83.67;101699.06;4960574;28;20391;-80
2022/01/28 11:39:46;;;;;;;47.70;16.60;;;;;;;4.03;83.73;101692.75;4979625;28;20074;-80
2022/01/28 11:42:26;;;;;;;46.75;15.32;;;;;;;4.01;83.74;101691.06;4946782;28;20133;-81
2022/01/28 11:44:55;;;;;;;45.13;15.25;;;;;;;4.10;83.75;101685.53;4958198;28;20042;-80
2022/01/28 11:47:39;;;;;;;41.38;15.30;;;;;;;4.09;83.95;101689.91;4971316;28;20133;-80
2022/01/28 11:50:17;;;;;;;44.92;15.48;;;;;;;4.10;83.80;101681.13;4990424;28;20178;-80
2022/01/28 11:52:53;;;;;;;48.15;14.75;;;;;;;4.15;83.89;101686.25;4962476;28;20062;-81
2022/01/28 11:55:20;;;;;;;45.22;15.65;;;;;;;4.16;83.96;101682.69;4993169;28;20053;-81
2022/01/28 11:57:54;;;;;;;40.63;14.13;;;;;;;4.22;84.03;101679.84;5012810;28;20046;-80
2022/01/28 12:00:31;;;;;;;46.70;15.38;;;;;;;4.34;84.00;101678.59;5014308;28;20069;-80
2022/01/28 12:03:01;;;;;;;39.97;14.02;;;;;;;4.54;85.21;101668.28;4938276;28;20398;-81
2022/01/28 12:05:30;;;;;;;45.47;16.33;;;;;;;4.65;83.03;101662.63;4958045;28;20054;-82
2022/01/28 12:08:00;;;;;;;46.45;15.25;;;;;;;4.48;83.11;101667.63;4950414;28;20124;-81
2022/01/28 12:10:27;;;;;;;44.55;14.60;;;;;;;4.52;82.59;101658.72;4927785;28;20065;-80
2022/01/28 12:12:59;;;;;;;36.58;15.02;;;;;;;4.47;83.21;101652.75;4961548;28;20055;-81
2022/01/28 12:15:31;;;;;;;40.22;14.90;;;;;;;4.46;83.31;101645.78;4965591;28;20528;-81
2022/01/28 12:18:11;;;;;;;40.58;13.38;;;;;;;4.39;83.13;101645.13;4951553;28;20070;-81
2022/01/28 12:20:48;;;;;;;38.85;14.00;;;;;;;4.37;83.37;101641.66;4997827;28;20097;-81
2022/01/28 12:23:18;;;;;;;45.08;16.25;;;;;;;4.49;83.49;101643.03;4962913;28;20124;-80
2022/01/28 12:25:45;;;;;;;50.78;16.30;;;;;;;4.49;83.41;101651.78;4974381;28;20057;-81
2022/01/28 12:29:04;;;;;;;42.47;13.52;;;;;;;4.37;83.01;101646.94;4975850;28;20046;-81
2022/01/28 12:31:56;;;;;;;36.33;12.23;;;;;;;4.42;82.99;101649.41;4962178;28;20076;-81
2022/01/28 12:34:24;;;;;;;28.23;11.50;;;;;;;4.42;83.50;101650.25;4990728;28;20046;-81
2022/01/28 12:36:51;;;;;;;34.42;12.52;;;;;;;4.44;83.17;101643.19;5010462;28;20523;-81
2022/01/28 12:39:32;;;;;;;37.90;12.07;;;;;;;4.46;83.54;101658.94;5018178;28;20069;-80
2022/01/28 12:42:32;;;;;;;37.70;12.90;;;;;;;4.34;83.09;101658.41;5029997;28;20076;-82
2022/01/28 12:45:05;;;;;;;29.65;11.23;;;;;;;4.40;82.75;101654.75;4970328;28;20065;-82
2022/01/28 12:47:33;;;;;;;33.08;12.48;;;;;;;4.44;82.88;101653.72;5007187;28;20042;-80
2022/01/28 12:50:04;;;;;;;27.42;11.40;;;;;;;4.41;83.13;101651.19;4986718;28;20500;-84
2022/01/28 12:52:34;;;;;;;28.58;11.18;;;;;;;4.46;82.94;101648.41;5005079;28;20374;-81
2022/01/28 12:55:33;;;;;;;38.75;11.65;;;;;;;4.42;82.61;101652.91;4989786;28;20111;-81
2022/01/28 12:58:00;;;;;;;31.10;10.45;;;;;;;4.51;83.17;101644.72;4942959;28;20046;-81
2022/01/28 13:00:26;;;;;;;26.50;9.27;;;;;;;4.55;83.00;101633.19;5004596;28;20117;-81
2022/01/28 13:02:55;;;;;;;25.65;9.88;;;;;;;4.56;82.89;101631.41;4982255;28;20120;-80